createdAt,value
2022-12-23T00:01:43.009Z,83.56
2022-12-23T00:04:12.093Z,84.08
2022-12-23T00:06:42.611Z,83.34
2022-12-23T00:09:11.315Z,83.33
2022-12-23T00:12:01.670Z,82.24
2022-12-23T00:14:47.657Z,82.32
2022-12-23T00:17:23.668Z,83.19
2022-12-23T00:19:53.125Z,82.82
2022-12-23T00:22:44.457Z,83.61
2022-12-23T00:25:14.105Z,85.41
2022-12-23T00:27:43.300Z,85.21
2022-12-23T00:30:13.091Z,86.25
2022-12-23T00:32:42.118Z,85.95
2022-12-23T00:35:11.024Z,86.70
2022-12-23T00:37:41.133Z,86.83
2022-12-23T00:40:31.677Z,87.51
2022-12-23T00:43:01.176Z,87.63
2022-12-23T00:45:29.677Z,88.64
2022-12-23T00:48:15.841Z,88.43
2022-12-23T00:50:44.787Z,89.83
2022-12-23T00:53:14.710Z,90.33
2022-12-23T00:55:43.388Z,90.54
2022-12-23T00:58:11.858Z,91.09
2022-12-23T01:00:58.232Z,90.82
2022-12-23T01:03:45.197Z,91.19
2022-12-23T01:06:14.047Z,90.82
2022-12-23T01:08:44.719Z,90.58
2022-12-23T01:11:13.967Z,90.93
2022-12-23T01:13:42.832Z,90.53
2022-12-23T01:16:17.152Z,90.88
2022-12-23T01:18:46.798Z,90.12
2022-12-23T01:21:15.306Z,89.89
2022-12-23T01:23:45.499Z,88.80
2022-12-23T01:26:14.336Z,88.55
2022-12-23T01:28:43.542Z,87.38
2022-12-23T01:31:13.011Z,86.92
2022-12-23T01:33:41.624Z,86.29
2022-12-23T01:36:11.569Z,86.33
2022-12-23T01:38:40.051Z,85.88
2022-12-23T01:41:30.042Z,85.35
2022-12-23T01:43:57.612Z,84.83
2022-12-23T01:46:26.721Z,85.09
2022-12-23T01:48:57.289Z,85.80
2022-12-23T01:51:30.003Z,85.17
2022-12-23T01:54:02.900Z,85.71
2022-12-23T01:56:37.212Z,86.03
2022-12-23T01:59:08.927Z,85.66
2022-12-23T02:01:55.482Z,86.96
2022-12-23T02:04:30.063Z,87.10
2022-12-23T02:07:16.146Z,88.30
2022-12-23T02:09:45.531Z,87.94
2022-12-23T02:12:33.694Z,88.27
2022-12-23T02:15:49.987Z,87.96
2022-12-23T02:18:32.265Z,87.95
2022-12-23T02:21:13.149Z,87.84
2022-12-23T02:24:05.975Z,87.45
2022-12-23T02:26:59.630Z,87.54
2022-12-23T02:30:13.202Z,86.53
2022-12-23T02:33:01.850Z,86.75
2022-12-23T02:35:39.333Z,87.25
2022-12-23T02:38:13.675Z,87.43
2022-12-23T02:40:52.904Z,87.83
2022-12-23T02:43:30.903Z,88.05
2022-12-23T02:46:06.001Z,88.35
2022-12-23T02:48:41.096Z,88.61
2022-12-23T02:51:12.362Z,88.52
2022-12-23T02:53:45.294Z,88.68
2022-12-23T02:56:18.437Z,89.59
2022-12-23T02:58:54.537Z,89.18
2022-12-23T03:01:25.765Z,90.21
2022-12-23T03:03:57.355Z,90.51
2022-12-23T03:06:30.025Z,90.32
2022-12-23T03:09:01.561Z,90.78
2022-12-23T03:11:41.099Z,91.42
2022-12-23T03:14:42.697Z,91.59
2022-12-23T03:17:26.201Z,91.67
2022-12-23T03:20:04.876Z,92.43
2022-12-23T03:22:38.906Z,92.43
2022-12-23T03:25:15.419Z,92.51
2022-12-23T03:27:51.040Z,92.04
2022-12-23T03:30:21.808Z,91.53
2022-12-23T03:32:54.815Z,92.01
2022-12-23T03:35:28.234Z,92.32
2022-12-23T03:37:59.367Z,92.92
2022-12-23T03:40:32.015Z,93.32
2022-12-23T03:43:05.356Z,93.17
2022-12-23T03:45:41.056Z,93.36
2022-12-23T03:48:13.335Z,93.29
2022-12-23T03:50:45.220Z,93.10
2022-12-23T03:53:18.425Z,92.81
2022-12-23T03:55:53.118Z,93.28
2022-12-23T03:58:32.441Z,93.23
2022-12-23T04:01:10.482Z,93.40
2022-12-23T04:03:49.213Z,93.32
2022-12-23T04:06:21.339Z,93.41
2022-12-23T04:08:51.266Z,93.60
2022-12-23T04:11:21.375Z,93.49
2022-12-23T04:13:50.540Z,93.43
2022-12-23T04:16:19.403Z,93.67
2022-12-23T04:18:47.950Z,93.73
2022-12-23T04:21:16.459Z,93.92
2022-12-23T04:23:46.505Z,93.93
2022-12-23T04:26:15.269Z,93.91
2022-12-23T04:28:43.904Z,94.01
2022-12-23T04:31:15.836Z,93.62
2022-12-23T04:33:44.680Z,93.46
2022-12-23T04:36:13.807Z,93.16
2022-12-23T04:38:43.079Z,93.35
2022-12-23T04:41:13.025Z,93.06
2022-12-23T04:43:42.599Z,93.46
2022-12-23T04:48:32.763Z,93.48
2022-12-23T04:51:02.316Z,93.60
2022-12-23T04:53:30.899Z,93.53
2022-12-23T04:55:59.428Z,93.46
2022-12-23T04:58:27.990Z,93.39
2022-12-23T05:01:03.349Z,93.35
2022-12-23T05:03:33.522Z,92.83
2022-12-23T05:06:02.359Z,92.54
2022-12-23T05:08:31.284Z,93.09
2022-12-23T05:10:59.741Z,93.14
2022-12-23T05:13:28.218Z,93.27
2022-12-23T05:16:00.559Z,92.78
2022-12-23T05:18:29.077Z,93.45
2022-12-23T05:20:58.916Z,93.11
2022-12-23T05:23:27.249Z,93.18
2022-12-23T05:25:55.914Z,93.36
2022-12-23T05:28:24.618Z,93.05
2022-12-23T05:30:59.269Z,92.67
2022-12-23T05:33:28.286Z,92.52
2022-12-23T05:35:57.253Z,92.75
2022-12-23T05:38:27.852Z,92.57
2022-12-23T05:40:56.422Z,92.24
2022-12-23T05:43:25.005Z,92.58
2022-12-23T05:45:53.830Z,92.67
2022-12-23T05:48:22.596Z,93.52
2022-12-23T05:50:51.766Z,93.17
2022-12-23T05:53:21.192Z,93.17
2022-12-23T05:55:51.444Z,93.20
2022-12-23T05:58:20.188Z,93.69
2022-12-23T06:00:49.347Z,93.48
2022-12-23T06:03:17.987Z,93.87
2022-12-23T06:05:51.139Z,94.05
2022-12-23T06:08:19.705Z,94.05
2022-12-23T06:10:48.215Z,94.06
2022-12-23T06:13:18.020Z,94.11
2022-12-23T06:15:46.453Z,93.96
2022-12-23T06:18:14.882Z,94.09
2022-12-23T06:20:46.468Z,94.50
2022-12-23T06:23:14.927Z,94.50
2022-12-23T06:25:43.439Z,94.61
2022-12-23T06:28:11.953Z,94.74
2022-12-23T06:30:41.729Z,94.78
2022-12-23T06:33:10.169Z,94.83
2022-12-23T06:35:38.639Z,94.94
2022-12-23T06:40:25.420Z,94.84
2022-12-23T06:42:53.740Z,94.98
2022-12-23T06:45:22.974Z,94.98
2022-12-23T06:47:51.540Z,95.50
2022-12-23T06:50:20.618Z,95.20
2022-12-23T06:52:49.223Z,95.44
2022-12-23T06:55:17.838Z,95.23
2022-12-23T07:00:07.152Z,95.12
2022-12-23T07:02:36.013Z,95.35
2022-12-23T07:05:05.350Z,95.01
2022-12-23T07:07:34.084Z,95.45
2022-12-23T07:10:02.615Z,95.31
2022-12-23T07:14:51.425Z,95.83
2022-12-23T07:17:20.096Z,95.72
2022-12-23T07:19:48.758Z,95.98
2022-12-23T07:22:17.535Z,95.61
2022-12-23T07:24:46.715Z,95.61
2022-12-23T07:27:15.348Z,95.58
2022-12-23T07:29:44.176Z,96.04
2022-12-23T07:32:14.072Z,95.73
2022-12-23T07:34:42.897Z,95.96
2022-12-23T07:39:32.056Z,96.15
2022-12-23T07:42:33.846Z,95.98
2022-12-23T07:44:49.268Z,96.14
2022-12-23T07:47:17.989Z,96.14
2022-12-23T07:49:46.595Z,96.39
2022-12-23T07:56:53.927Z,96.17
2022-12-23T07:59:22.791Z,96.31
2022-12-23T08:01:51.771Z,95.65
2022-12-23T08:04:20.461Z,96.34
2022-12-23T08:06:49.294Z,96.22
2022-12-23T08:09:19.778Z,95.87
2022-12-23T08:11:48.300Z,96.02
2022-12-23T08:14:18.232Z,96.26
2022-12-23T08:16:46.641Z,95.99
2022-12-23T08:19:15.535Z,96.02
2022-12-23T08:21:44.168Z,95.71
2022-12-23T08:24:12.909Z,96.26
2022-12-23T08:26:41.752Z,96.09
2022-12-23T08:29:10.278Z,95.81
2022-12-23T08:31:40.212Z,96.26
2022-12-23T08:34:10.623Z,96.09
2022-12-23T08:36:39.986Z,95.81
2022-12-23T08:39:11.229Z,96.05
2022-12-23T08:43:58.581Z,95.96
2022-12-23T08:46:28.170Z,95.77
2022-12-23T08:48:57.165Z,95.95
2022-12-23T08:54:04.062Z,95.50
2022-12-23T08:56:35.491Z,95.36
2022-12-23T08:59:04.554Z,95.11
2022-12-23T09:01:35.625Z,94.90
2022-12-23T09:04:05.395Z,95.13
2022-12-23T09:06:36.567Z,95.13
2022-12-23T09:09:07.351Z,95.31
2022-12-23T09:11:36.722Z,95.14
2022-12-23T09:14:07.021Z,95.11
2022-12-23T09:16:35.652Z,95.42
2022-12-23T09:19:04.835Z,95.41
2022-12-23T09:21:33.795Z,95.53
2022-12-23T09:24:02.371Z,95.32
2022-12-23T09:26:32.613Z,94.97
2022-12-23T09:29:01.704Z,94.98
2022-12-23T09:31:36.282Z,95.00
2022-12-23T09:34:06.538Z,94.79
2022-12-23T09:36:35.379Z,94.76
2022-12-23T09:39:03.966Z,95.13
2022-12-23T09:41:54.276Z,94.56
2022-12-23T09:44:44.846Z,94.20
2022-12-23T09:47:17.209Z,94.28
2022-12-23T09:49:50.867Z,94.58
2022-12-23T09:52:26.102Z,94.08
2022-12-23T09:54:56.140Z,94.25
2022-12-23T09:57:35.355Z,94.13
2022-12-23T10:00:14.373Z,94.08
2022-12-23T10:03:06.149Z,93.79
2022-12-23T10:05:47.626Z,93.35
2022-12-23T10:08:22.487Z,93.96
2022-12-23T10:10:54.522Z,93.58
2022-12-23T10:13:29.871Z,94.40
2022-12-23T10:16:05.349Z,93.87
2022-12-23T10:18:49.400Z,93.87
2022-12-23T10:21:25.667Z,93.14
2022-12-23T10:23:56.043Z,94.01
2022-12-23T10:26:26.763Z,93.31
2022-12-23T10:29:02.267Z,93.79
2022-12-23T10:31:41.309Z,94.21
2022-12-23T10:34:18.597Z,94.01
2022-12-23T10:36:55.350Z,94.55
2022-12-23T10:39:33.303Z,92.41
2022-12-23T10:42:12.184Z,92.02
2022-12-23T10:45:03.374Z,91.58
2022-12-23T10:47:49.956Z,92.39
2022-12-23T10:50:46.072Z,92.61
2022-12-23T10:53:22.071Z,92.39
2022-12-23T10:55:51.326Z,92.00
2022-12-23T10:58:20.831Z,92.79
2022-12-23T11:00:55.032Z,92.44
2022-12-23T11:03:29.561Z,92.72
2022-12-23T11:05:59.625Z,92.13
2022-12-23T11:08:30.385Z,93.05
2022-12-23T11:11:01.277Z,92.41
2022-12-23T11:13:37.104Z,91.77
2022-12-23T11:16:20.421Z,93.01
2022-12-23T11:18:58.020Z,92.62
2022-12-23T11:21:27.436Z,91.90
2022-12-23T11:24:14.836Z,92.30
2022-12-23T11:26:44.534Z,92.74
2022-12-23T11:29:20.845Z,92.70
2022-12-23T11:31:51.645Z,92.21
2022-12-23T11:34:23.830Z,92.21
2022-12-23T11:36:58.763Z,93.00
2022-12-23T11:39:34.027Z,92.22
2022-12-23T11:42:06.999Z,92.99
2022-12-23T11:44:40.250Z,93.02
2022-12-23T11:47:29.191Z,93.44
2022-12-23T11:50:00.298Z,93.06
2022-12-23T11:52:30.883Z,93.06
2022-12-23T11:55:01.571Z,93.31
2022-12-23T11:57:39.073Z,93.26
2022-12-23T12:00:09.504Z,93.59
2022-12-23T12:02:43.969Z,93.21
2022-12-23T12:05:22.652Z,92.45
2022-12-23T12:07:52.970Z,93.16
2022-12-23T12:10:26.910Z,92.81
2022-12-23T12:12:58.382Z,93.13
2022-12-23T12:15:35.648Z,92.86
2022-12-23T12:18:09.826Z,93.95
2022-12-23T12:20:43.083Z,93.43
2022-12-23T12:23:15.898Z,93.65
2022-12-23T12:25:49.851Z,93.12
2022-12-23T12:28:21.928Z,93.70
2022-12-23T12:30:55.680Z,93.06
2022-12-23T12:33:35.997Z,94.14
2022-12-23T12:36:13.744Z,93.85
2022-12-23T12:38:47.672Z,93.47
2022-12-23T12:41:21.413Z,94.33
2022-12-23T12:43:53.935Z,93.83
2022-12-23T12:46:31.676Z,94.14
2022-12-23T12:49:07.219Z,94.12
2022-12-23T12:51:44.619Z,94.29
2022-12-23T12:54:21.116Z,94.16
2022-12-23T12:56:51.194Z,94.29
2022-12-23T12:59:22.180Z,94.13
2022-12-23T13:02:08.421Z,94.15
2022-12-23T13:05:06.117Z,93.49
2022-12-23T13:07:44.799Z,94.11
2022-12-23T13:10:24.968Z,94.75
2022-12-23T13:13:01.574Z,93.76
2022-12-23T13:15:35.257Z,93.90
2022-12-23T13:20:32.413Z,93.97
2022-12-23T13:25:25.310Z,93.93
2022-12-23T13:27:58.142Z,93.98
2022-12-23T13:33:24.327Z,94.16
2022-12-23T13:36:06.744Z,93.54
2022-12-23T13:38:52.951Z,94.33
2022-12-23T13:41:31.501Z,93.96
2022-12-23T13:44:01.668Z,93.52
2022-12-23T13:46:44.550Z,93.92
2022-12-23T13:49:22.855Z,93.92
2022-12-23T13:51:58.608Z,94.01
2022-12-23T13:54:44.496Z,93.85
2022-12-23T13:57:24.531Z,93.95
2022-12-23T14:00:06.010Z,93.18
2022-12-23T14:02:50.963Z,91.38
2022-12-23T14:05:33.725Z,91.97
2022-12-23T14:08:04.557Z,92.30
2022-12-23T14:10:33.676Z,91.97
2022-12-23T14:13:06.451Z,92.63
2022-12-23T14:15:55.872Z,92.83
2022-12-23T14:18:43.465Z,93.81
2022-12-23T14:21:23.146Z,92.52
2022-12-23T14:24:23.660Z,90.00
2022-12-23T14:27:15.557Z,90.93
2022-12-23T14:30:03.375Z,88.50
2022-12-23T14:32:43.785Z,88.50
2022-12-23T14:35:28.927Z,89.03
2022-12-23T14:38:27.125Z,89.21
2022-12-23T14:41:00.448Z,88.01
2022-12-23T14:43:51.338Z,89.00
2022-12-23T14:46:58.597Z,89.06
2022-12-23T14:49:48.587Z,89.97
2022-12-23T14:52:53.880Z,90.32
2022-12-23T14:56:11.025Z,91.45
2022-12-23T14:59:13.875Z,91.18
2022-12-23T15:01:44.787Z,90.99
2022-12-23T15:04:19.366Z,92.18
2022-12-23T15:06:50.863Z,91.54
2022-12-23T15:09:26.171Z,91.68
2022-12-23T15:11:59.592Z,91.62
2022-12-23T15:14:33.951Z,92.51
2022-12-23T15:17:16.370Z,91.90
2022-12-23T15:19:48.409Z,91.41
2022-12-23T15:22:24.132Z,92.49
2022-12-23T15:24:57.018Z,92.83
2022-12-23T15:27:30.269Z,92.52
2022-12-23T15:29:59.524Z,92.35
2022-12-23T15:32:30.105Z,93.16
2022-12-23T15:35:04.984Z,92.41
2022-12-23T15:37:34.339Z,92.10
2022-12-23T15:40:12.155Z,90.87
2022-12-23T15:42:49.747Z,91.22
2022-12-23T15:45:36.811Z,90.84
2022-12-23T15:48:07.384Z,90.23
2022-12-23T15:50:42.181Z,89.32
2022-12-23T15:53:14.218Z,89.38
2022-12-23T15:55:42.931Z,89.01
2022-12-23T15:58:19.851Z,86.76
2022-12-23T16:00:54.514Z,86.98
2022-12-23T16:03:28.748Z,85.65
2022-12-23T16:06:08.343Z,85.42
2022-12-23T16:08:37.307Z,85.12
2022-12-23T16:11:13.473Z,84.98
2022-12-23T16:13:58.321Z,84.93
2022-12-23T16:16:33.784Z,84.78
2022-12-23T16:19:02.500Z,86.07
2022-12-23T16:21:34.460Z,85.70
2022-12-23T16:24:08.493Z,85.14
2022-12-23T16:26:41.773Z,85.24
2022-12-23T16:29:12.700Z,86.07
2022-12-23T16:31:49.839Z,84.56
2022-12-23T16:34:21.044Z,84.39
2022-12-23T16:36:49.696Z,84.63
2022-12-23T16:39:21.539Z,86.14
2022-12-23T16:41:51.029Z,86.24
2022-12-23T16:44:21.390Z,87.02
2022-12-23T16:46:51.004Z,87.70
2022-12-23T16:49:22.457Z,87.27
2022-12-23T16:51:54.599Z,87.18
2022-12-23T16:54:23.132Z,87.89
2022-12-23T16:56:51.695Z,86.82
2022-12-23T16:59:21.591Z,85.63
2022-12-23T17:01:50.262Z,85.59
2022-12-23T17:04:19.289Z,86.51
2022-12-23T17:06:48.459Z,86.06
2022-12-23T17:09:17.018Z,85.86
2022-12-23T17:11:47.939Z,85.28
2022-12-23T17:14:19.196Z,86.28
2022-12-23T17:16:50.097Z,85.75
2022-12-23T17:19:28.035Z,85.96
2022-12-23T17:22:02.803Z,84.76
2022-12-23T17:24:31.738Z,84.33
2022-12-23T17:27:00.153Z,84.45
2022-12-23T17:29:28.708Z,85.08
2022-12-23T17:31:58.740Z,83.95
2022-12-23T17:34:27.670Z,84.51
2022-12-23T17:36:56.194Z,84.28
2022-12-23T17:39:25.367Z,84.52
2022-12-23T17:41:54.089Z,85.88
2022-12-23T17:44:22.577Z,85.90
2022-12-23T17:46:51.120Z,86.77
2022-12-23T17:49:21.015Z,86.41
2022-12-23T17:51:49.409Z,86.32
2022-12-23T17:54:25.877Z,86.87
